Station History

Weather Underground - logo

Station Historical Data
Daily Summary for August 4, 2017 Units:  English    Metric   Both
« Previous Day
Next Day »
Daily Weekly Monthly Yearly Custom
  High: Low: Average:
Temperature: TemperatureF °F 75.1 °F 83.9 °F
Dew Point: DewpointF °F 55.4 °F 63.4 °F
Humidity: Humidity % 23 % 52 %
Wind Speed: WindSpeedMPH mph 0.0 mph 1.1 mph
Wind Gust: WindSpeedGustMPH mph - -
Wind:- - SW
Pressure: PressureIn in 29.76 in -
Precipitation: 0.00 in    
Historical Graphs
 
 
Tabular Data for August 4, 2017
Time Temperature Dew Point Pressure Wind Wind Speed Wind Gust Humidity Rainfall Rate (Hourly)
TemperatureF °F DewpointF °F PressureIn in Calm     Humidity % HourlyPrecipIn in
00:04 79.1 °F 69.7 °F 29.85 in Calm     73 % 0.00 in
00:10 79.0 °F 68.4 °F 29.85 in Calm     70 % 0.00 in
00:14 79.2 °F 67.7 °F 29.85 in Calm     68 % 0.00 in
00:20 79.4 °F 67.9 °F 29.85 in Calm     68 % 0.00 in
00:25 79.3 °F 67.8 °F 29.85 in SE 1.2 mph 1.2 mph 68 % 0.00 in
00:30 79.1 °F 67.6 °F 29.85 in Calm     68 % 0.00 in
00:35 79.0 °F 68.0 °F 29.85 in Calm     69 % 0.00 in
00:40 78.8 °F 67.8 °F 29.85 in SE 1.2 mph 1.2 mph 69 % 0.00 in
00:45 78.7 °F 68.1 °F 29.85 in Calm     70 % 0.00 in
00:50 78.6 °F 68.8 °F 29.85 in Calm     72 % 0.00 in
00:55 78.3 °F 69.3 °F 29.85 in Calm     74 % 0.00 in
01:00 78.1 °F 68.7 °F 29.84 in SE 1.2 mph   73 % 0.00 in
01:05 78.2 °F 68.8 °F 29.84 in Calm     73 % 0.00 in
01:10 78.4 °F 68.6 °F 29.84 in Calm     72 % 0.00 in
01:15 78.5 °F 69.1 °F 29.84 in Calm     73 % 0.00 in
01:20 78.5 °F 68.7 °F 29.84 in Calm     72 % 0.00 in
01:25 78.5 °F 66.2 °F 29.85 in Calm     66 % 0.00 in
01:30 79.1 °F 65.9 °F 29.84 in Calm   0.1 mph 64 % 0.00 in
01:35 79.5 °F 65.3 °F 29.84 in Calm     62 % 0.00 in
01:40 79.7 °F 64.6 °F 29.84 in Calm     60 % 0.00 in
01:45 79.8 °F 65.2 °F 29.85 in Calm     61 % 0.00 in
01:50 79.7 °F 65.1 °F 29.84 in SE 1.2 mph   61 % 0.00 in
01:55 80.1 °F 64.5 °F 29.84 in Calm     59 % 0.00 in
02:00 80.2 °F 63.1 °F 29.84 in Calm     56 % 0.00 in
02:05 80.2 °F 62.6 °F 29.84 in Calm     55 % 0.00 in
02:10 80.2 °F 64.1 °F 29.84 in Calm     58 % 0.00 in
02:15 79.9 °F 65.2 °F 29.84 in Calm     61 % 0.00 in
02:20 79.5 °F 64.9 °F 29.84 in Calm     61 % 0.00 in
02:25 79.1 °F 65.9 °F 29.83 in Calm     64 % 0.00 in
02:30 78.8 °F 65.1 °F 29.84 in Calm     63 % 0.00 in
02:35 78.8 °F 65.6 °F 29.84 in Calm     64 % 0.00 in
02:40 78.6 °F 65.4 °F 29.84 in Calm     64 % 0.00 in
02:45 78.6 °F 65.8 °F 29.85 in Calm     65 % 0.00 in
02:50 78.4 °F 64.8 °F 29.85 in Calm     63 % 0.00 in
02:55 78.5 °F 64.9 °F 29.85 in Calm     63 % 0.00 in
03:00 78.5 °F 65.8 °F 29.86 in Calm     65 % 0.00 in
03:05 78.2 °F 65.9 °F 29.86 in Calm     66 % 0.00 in
03:10 78.1 °F 67.1 °F 29.86 in Calm     69 % 0.00 in
03:12 77.9 °F 66.5 °F 29.85 in NNE 1.2 mph   68 % 0.00 in
03:17 77.7 °F 67.5 °F 29.85 in Calm     71 % 0.00 in
03:22 77.6 °F 66.6 °F 29.85 in Calm     69 % 0.00 in
03:27 77.6 °F 64.9 °F 29.85 in NNE 1.2 mph 1.2 mph 65 % 0.00 in
03:32 77.9 °F 66.1 °F 29.85 in Calm     67 % 0.00 in
03:37 77.7 °F 65.9 °F 29.84 in Calm     67 % 0.00 in
03:42 77.5 °F 65.7 °F 29.84 in Calm     67 % 0.00 in
03:47 77.5 °F 65.7 °F 29.84 in Calm     67 % 0.00 in
03:52 77.5 °F 65.7 °F 29.84 in Calm     67 % 0.00 in
03:57 77.5 °F 64.8 °F 29.84 in Calm     65 % 0.00 in
04:02 77.5 °F 65.2 °F 29.84 in Calm     66 % 0.00 in
04:07 77.4 °F 63.4 °F 29.84 in Calm     62 % 0.00 in
04:12 77.7 °F 63.2 °F 29.84 in Calm     61 % 0.00 in
04:17 77.8 °F 64.2 °F 29.84 in Calm     63 % 0.00 in
04:22 77.7 °F 65.0 °F 29.84 in Calm     65 % 0.00 in
04:27 77.6 °F 63.5 °F 29.84 in Calm     62 % 0.00 in
04:32 77.7 °F 63.6 °F 29.84 in Calm     62 % 0.00 in
04:37 77.8 °F 63.3 °F 29.84 in NNE 1.2 mph   61 % 0.00 in
04:42 77.8 °F 62.8 °F 29.84 in Calm     60 % 0.00 in
04:47 77.8 °F 62.8 °F 29.84 in Calm     60 % 0.00 in
04:52 77.7 °F 63.6 °F 29.84 in Calm     62 % 0.00 in
04:57 77.5 °F 63.9 °F 29.83 in Calm     63 % 0.00 in
05:02 77.2 °F 61.8 °F 29.83 in Calm     59 % 0.00 in
05:07 77.1 °F 62.6 °F 29.83 in Calm     61 % 0.00 in
05:12 77.1 °F 64.0 °F 29.83 in Calm     64 % 0.00 in
05:17 76.8 °F 62.3 °F 29.83 in Calm     61 % 0.00 in
05:22 76.5 °F 62.5 °F 29.83 in Calm     62 % 0.00 in
05:27 76.4 °F 62.0 °F 29.83 in Calm     61 % 0.00 in
05:32 76.7 °F 60.8 °F 29.83 in Calm     58 % 0.00 in
05:37 76.9 °F 61.0 °F 29.83 in Calm     58 % 0.00 in
05:42 77.3 °F 60.4 °F 29.83 in NNE 1.2 mph   56 % 0.00 in
05:47 77.6 °F 60.2 °F 29.83 in Calm     55 % 0.00 in
05:52 77.5 °F 60.6 °F 29.83 in Calm     56 % 0.00 in
05:57 77.4 °F 61.0 °F 29.83 in Calm     57 % 0.00 in
06:02 77.1 °F 61.2 °F 29.82 in Calm     58 % 0.00 in
06:07 76.8 °F 61.9 °F 29.83 in Calm     60 % 0.00 in
06:12 76.3 °F 61.4 °F 29.83 in Calm     60 % 0.00 in
06:17 76.0 °F 62.5 °F 29.83 in Calm     63 % 0.00 in
06:22 75.7 °F 61.8 °F 29.83 in NW 1.0 mph 1.0 mph 62 % 0.00 in
06:27 75.3 °F 63.2 °F 29.83 in WSW 1.2 mph 1.2 mph 66 % 0.00 in
06:32 75.1 °F 63.8 °F 29.83 in Calm     68 % 0.00 in
06:37 75.1 °F 64.2 °F 29.84 in Calm     69 % 0.00 in
06:38 75.1 °F 64.6 °F 29.84 in Calm     70 % 0.00 in
06:43 75.1 °F 64.2 °F 29.84 in West 1.2 mph 1.2 mph 69 % 0.00 in
06:48 75.2 °F 64.3 °F 29.84 in Calm     69 % 0.00 in
06:53 75.2 °F 64.3 °F 29.85 in Calm     69 % 0.00 in
06:58 75.3 °F 65.6 °F 29.85 in Calm     72 % 0.00 in
07:03 75.2 °F 64.7 °F 29.85 in Calm     70 % 0.00 in
07:08 75.3 °F 65.2 °F 29.86 in Calm     71 % 0.00 in
07:13 75.6 °F 64.7 °F 29.86 in Calm     69 % 0.00 in
07:18 75.8 °F 64.9 °F 29.86 in Calm     69 % 0.00 in
07:23 76.1 °F 65.2 °F 29.86 in Calm     69 % 0.00 in
07:28 76.2 °F 64.4 °F 29.86 in Calm     67 % 0.00 in
07:33 76.4 °F 64.6 °F 29.86 in Calm     67 % 0.00 in
07:38 76.7 °F 64.0 °F 29.87 in Calm     65 % 0.00 in
07:43 77.0 °F 63.9 °F 29.87 in Calm     64 % 0.00 in
07:48 77.4 °F 63.8 °F 29.87 in East 1.2 mph 1.2 mph 63 % 0.00 in
07:53 77.7 °F 63.6 °F 29.87 in East 1.2 mph 1.2 mph 62 % 0.00 in
07:58 78.0 °F 63.0 °F 29.87 in East 2.3 mph 2.3 mph 60 % 0.00 in
08:04 78.0 °F 63.5 °F 29.87 in East 1.2 mph 1.2 mph 61 % 0.00 in
08:09 78.1 °F 64.0 °F 29.87 in East 1.2 mph   62 % 0.00 in
08:14 78.0 °F 63.5 °F 29.87 in East 1.2 mph 1.2 mph 61 % 0.00 in
08:19 78.1 °F 64.0 °F 29.87 in Calm     62 % 0.00 in
08:24 78.2 °F 63.6 °F 29.87 in East 1.2 mph   61 % 0.00 in
08:29 78.3 °F 63.3 °F 29.87 in Calm     60 % 0.00 in
08:34 78.5 °F 63.9 °F 29.88 in Calm     61 % 0.00 in
08:39 78.6 °F 64.0 °F 29.88 in Calm     61 % 0.00 in
08:44 78.8 °F 65.1 °F 29.88 in East 2.3 mph 2.3 mph 63 % 0.00 in
08:49 79.1 °F 65.0 °F 29.88 in East 1.2 mph   62 % 0.00 in
08:54 79.5 °F 64.4 °F 29.88 in East 1.2 mph 1.2 mph 60 % 0.00 in
08:59 79.8 °F 64.7 °F 29.87 in East 1.2 mph   60 % 0.00 in
09:04 80.1 °F 64.5 °F 29.88 in East 2.3 mph 2.3 mph 59 % 0.00 in
09:05 80.1 °F 64.5 °F 29.88 in East 2.3 mph 2.3 mph 59 % 0.00 in
09:10 80.2 °F 64.6 °F 29.87 in East 1.2 mph 1.2 mph 59 % 0.00 in
09:15 80.2 °F 64.1 °F 29.87 in East 1.2 mph 1.2 mph 58 % 0.00 in
09:20 80.3 °F 64.7 °F 29.87 in Calm     59 % 0.00 in
09:25 80.5 °F 64.9 °F 29.87 in Calm     59 % 0.00 in
09:30 80.7 °F 65.0 °F 29.87 in Calm     59 % 0.00 in
09:35 80.9 °F 65.2 °F 29.88 in Calm     59 % 0.00 in
09:40 81.0 °F 64.8 °F 29.88 in Calm     58 % 0.00 in
09:45 81.1 °F 65.4 °F 29.87 in East 1.2 mph   59 % 0.00 in
09:50 81.3 °F 64.6 °F 29.88 in East 1.2 mph 1.2 mph 57 % 0.00 in
09:55 81.7 °F 64.5 °F 29.88 in Calm     56 % 0.00 in
10:00 82.1 °F 64.3 °F 29.88 in Calm     55 % 0.00 in
10:05 82.5 °F 64.2 °F 29.88 in Calm     54 % 0.00 in
10:10 83.0 °F 66.2 °F 29.88 in Calm     57 % 0.00 in
10:15 83.4 °F 66.6 °F 29.88 in Calm     57 % 0.00 in
10:20 83.8 °F 66.4 °F 29.88 in East 1.2 mph 1.2 mph 56 % 0.00 in
10:26 83.8 °F 65.4 °F 29.88 in East 1.2 mph   54 % 0.00 in
10:30 84.0 °F 67.6 °F 29.88 in Calm     58 % 0.00 in
10:36 84.5 °F 68.1 °F 29.88 in East 1.2 mph   58 % 0.00 in
10:41 84.8 °F 67.4 °F 29.88 in NNW 1.2 mph   56 % 0.00 in
10:46 85.0 °F 68.1 °F 29.88 in Calm     57 % 0.00 in
10:51 85.1 °F 68.2 °F 29.88 in West 1.2 mph 1.2 mph 57 % 0.00 in
10:56 84.8 °F 68.4 °F 29.88 in Calm     58 % 0.00 in
11:01 84.9 °F 68.5 °F 29.88 in SE 1.2 mph   58 % 0.00 in
11:06 85.2 °F 67.2 °F 29.88 in SE 1.2 mph 1.2 mph 55 % 0.00 in
11:11 85.6 °F 67.0 °F 29.88 in West 1.2 mph 1.2 mph 54 % 0.00 in
11:16 85.8 °F 65.6 °F 29.88 in Calm   0.1 mph 51 % 0.00 in
11:20 86.0 °F 65.8 °F 29.88 in Calm     51 % 0.00 in
11:25 86.2 °F 65.9 °F 29.89 in NNW 1.2 mph 1.2 mph 51 % 0.00 in
11:30 86.5 °F 66.2 °F 29.88 in Calm   0.1 mph 51 % 0.00 in
11:35 86.8 °F 64.8 °F 29.88 in Calm     48 % 0.00 in
11:40 87.1 °F 66.8 °F 29.88 in Calm     51 % 0.00 in
11:42 87.3 °F 67.0 °F 29.88 in SSW 1.0 mph 1.0 mph 51 % 0.00 in
11:47 87.7 °F 62.4 °F 29.88 in ESE 1.2 mph   43 % 0.00 in
11:52 88.0 °F 64.0 °F 29.88 in Calm     45 % 0.00 in
11:57 88.6 °F 63.9 °F 29.88 in Calm     44 % 0.00 in
12:02 89.0 °F 62.9 °F 29.88 in NNW 1.2 mph 1.2 mph 42 % 0.00 in
12:04 89.0 °F 62.2 °F 29.88 in NW 1.2 mph 1.2 mph 41 % 0.00 in
12:09 89.3 °F 64.5 °F 29.88 in Calm     44 % 0.00 in
12:14 89.9 °F 65.1 °F 29.87 in Calm     44 % 0.00 in
12:19 90.5 °F 64.3 °F 29.87 in NE 1.2 mph 1.2 mph 42 % 0.00 in
12:24 90.9 °F 63.2 °F 29.87 in SSE 2.3 mph 2.3 mph 40 % 0.00 in
12:29 91.7 °F 64.7 °F 29.87 in ESE 2.3 mph 2.3 mph 41 % 0.00 in
12:34 92.5 °F 62.4 °F 29.86 in Calm     37 % 0.00 in
12:39 93.8 °F 62.8 °F 29.86 in SSE 3.5 mph 3.5 mph 36 % 0.00 in
12:44 94.4 °F 64.1 °F 29.86 in SE 1.2 mph 1.2 mph 37 % 0.00 in
12:49 94.8 °F 65.2 °F 29.86 in WSW 1.2 mph   38 % 0.00 in
12:54 94.6 °F 63.5 °F 29.86 in SSE 1.0 mph 1.0 mph 36 % 0.00 in
12:59 95.0 °F 63.1 °F 29.85 in WNW 2.0 mph 2.0 mph 35 % 0.00 in
13:04 95.2 °F 60.7 °F 29.85 in NW 2.3 mph 2.3 mph 32 % 0.00 in
13:09 94.5 °F 61.0 °F 29.85 in WNW 3.5 mph 3.5 mph 33 % 0.00 in
13:14 94.8 °F 62.9 °F 29.85 in SE 2.3 mph 2.3 mph 35 % 0.00 in
13:19 95.5 °F 62.7 °F 29.85 in SSE 2.3 mph 2.3 mph 34 % 0.00 in
13:24 95.9 °F 62.2 °F 29.84 in ESE 2.0 mph 2.0 mph 33 % 0.00 in
13:29 96.3 °F 61.6 °F 29.84 in NW 1.2 mph 1.2 mph 32 % 0.00 in
13:34 95.7 °F 61.1 °F 29.84 in SE 2.0 mph 2.0 mph 32 % 0.00 in
13:39 95.6 °F 61.9 °F 29.84 in NW 1.2 mph 1.2 mph 33 % 0.00 in
13:44 96.3 °F 63.4 °F 29.83 in ESE 2.3 mph 2.3 mph 34 % 0.00 in
13:49 96.8 °F 62.1 °F 29.83 in NNW 1.2 mph 1.3 mph 32 % 0.00 in
13:54 96.2 °F 64.1 °F 29.83 in North 2.3 mph 2.3 mph 35 % 0.00 in
13:59 96.3 °F 65.0 °F 29.83 in West 2.3 mph 2.3 mph 36 % 0.00 in
14:04 96.3 °F 61.6 °F 29.83 in NW 3.5 mph 3.5 mph 32 % 0.00 in
14:09 96.6 °F 61.9 °F 29.83 in NW 3.5 mph 3.5 mph 32 % 0.00 in
14:14 97.1 °F 62.3 °F 29.83 in East 3.5 mph 3.5 mph 32 % 0.00 in
14:19 97.5 °F 64.4 °F 29.83 in East 1.2 mph 1.2 mph 34 % 0.00 in
14:24 98.5 °F 61.7 °F 29.82 in South 1.2 mph 1.2 mph 30 % 0.00 in
14:27 98.6 °F 60.8 °F 29.82 in North 3.5 mph 3.5 mph 29 % 0.00 in
14:32 98.7 °F 56.8 °F 29.82 in WNW 2.3 mph 2.3 mph 25 % 0.00 in
14:38 98.8 °F 60.0 °F 29.81 in NNW 1.2 mph 1.2 mph 28 % 0.00 in
14:43 99.3 °F 59.4 °F 29.81 in NW 2.3 mph 2.3 mph 27 % 0.00 in
14:48 99.7 °F 58.7 °F 29.81 in WNW 2.3 mph 2.3 mph 26 % 0.00 in
14:53 99.5 °F 59.6 °F 29.81 in South 2.0 mph 2.0 mph 27 % 0.00 in
14:58 99.2 °F 61.4 °F 29.81 in NNE 1.2 mph 1.2 mph 29 % 0.00 in
15:03 98.5 °F 61.7 °F 29.80 in East 1.2 mph 1.2 mph 30 % 0.00 in
15:08 98.5 °F 56.6 °F 29.80 in WNW 3.5 mph 3.5 mph 25 % 0.00 in
15:13 98.5 °F 55.5 °F 29.80 in WSW 1.2 mph 1.2 mph 24 % 0.00 in
15:18 99.0 °F 55.9 °F 29.79 in ENE 3.5 mph 3.5 mph 24 % 0.00 in
15:23 99.8 °F 55.4 °F 29.79 in Calm     23 % 0.00 in
15:28 100.2 °F 55.7 °F 29.79 in NNW 1.2 mph 1.2 mph 23 % 0.00 in
15:33 100.3 °F 60.3 °F 29.79 in North 2.3 mph 2.3 mph 27 % 0.00 in
15:38 100.3 °F 60.3 °F 29.79 in NW 2.3 mph 2.3 mph 27 % 0.00 in
15:43 99.8 °F 61.9 °F 29.79 in WSW 1.2 mph 1.2 mph 29 % 0.00 in
15:48 100.2 °F 63.2 °F 29.79 in NW 2.3 mph 2.3 mph 30 % 0.00 in
15:53 100.1 °F 65.8 °F 29.78 in WNW 1.2 mph 1.2 mph 33 % 0.00 in
15:58 99.6 °F 61.7 °F 29.78 in NNW 5.0 mph 5.0 mph 29 % 0.00 in
16:03 99.1 °F 61.3 °F 29.78 in NW 3.0 mph 3.0 mph 29 % 0.00 in
16:08 98.7 °F 57.9 °F 29.79 in NW 4.6 mph 4.6 mph 26 % 0.00 in
16:13 98.7 °F 57.9 °F 29.78 in NW 4.6 mph 4.6 mph 26 % 0.00 in
16:18 98.3 °F 58.6 °F 29.78 in NW 5.8 mph 5.8 mph 27 % 0.00 in
16:23 97.6 °F 59.0 °F 29.78 in NW 6.0 mph 6.0 mph 28 % 0.00 in
16:28 96.9 °F 59.4 °F 29.78 in NW 6.9 mph 6.9 mph 29 % 0.00 in
16:33 96.6 °F 60.1 °F 29.78 in WNW 5.0 mph 5.0 mph 30 % 0.00 in
16:38 96.6 °F 57.1 °F 29.78 in NW 5.8 mph 5.8 mph 27 % 0.00 in
16:43 96.2 °F 59.7 °F 29.78 in WNW 3.5 mph 3.5 mph 30 % 0.00 in
16:48 95.6 °F 58.3 °F 29.78 in WNW 3.5 mph 3.5 mph 29 % 0.00 in
16:53 95.3 °F 58.0 °F 29.78 in NNE 3.5 mph 3.5 mph 29 % 0.00 in
16:58 95.1 °F 57.8 °F 29.78 in WNW 3.5 mph 3.5 mph 29 % 0.00 in
17:03 94.4 °F 57.2 °F 29.78 in NW 3.5 mph 3.5 mph 29 % 0.00 in
17:08 93.7 °F 58.5 °F 29.78 in NW 3.5 mph 3.5 mph 31 % 0.00 in
17:13 92.9 °F 57.8 °F 29.77 in WNW 4.0 mph 4.0 mph 31 % 0.00 in
17:18 92.6 °F 58.4 °F 29.78 in WNW 3.5 mph 3.5 mph 32 % 0.00 in
17:23 93.1 °F 58.9 °F 29.77 in NW 4.6 mph 4.6 mph 32 % 0.00 in
17:28 93.3 °F 59.0 °F 29.77 in North 4.6 mph 4.6 mph 32 % 0.00 in
17:33 93.4 °F 60.8 °F 29.77 in NW 4.0 mph 4.0 mph 34 % 0.00 in
17:38 93.0 °F 59.6 °F 29.77 in NW 4.6 mph 4.6 mph 33 % 0.00 in
17:43 92.8 °F 60.3 °F 29.77 in NW 5.0 mph 5.0 mph 34 % 0.00 in
17:49 92.4 °F 60.8 °F 29.77 in NW 5.8 mph 5.8 mph 35 % 0.00 in
17:54 92.4 °F 60.0 °F 29.77 in NW 6.9 mph 6.9 mph 34 % 0.00 in
17:59 92.1 °F 60.5 °F 29.77 in NW 3.5 mph 3.5 mph 35 % 0.00 in
18:04 91.2 °F 60.5 °F 29.77 in WNW 3.5 mph 3.5 mph 36 % 0.00 in
18:09 90.4 °F 61.3 °F 29.77 in NW 3.5 mph 3.5 mph 38 % 0.00 in
18:14 90.1 °F 62.5 °F 29.77 in NW 2.3 mph 2.3 mph 40 % 0.00 in
18:19 89.5 °F 62.0 °F 29.77 in WNW 2.3 mph 2.3 mph 40 % 0.00 in
18:24 88.9 °F 62.8 °F 29.77 in NW 3.5 mph 3.5 mph 42 % 0.00 in
18:29 88.4 °F 63.1 °F 29.77 in NW 3.5 mph 3.5 mph 43 % 0.00 in
18:34 88.1 °F 63.4 °F 29.77 in WNW 3.0 mph 3.0 mph 44 % 0.00 in
18:39 88.1 °F 63.4 °F 29.77 in WNW 3.5 mph 3.5 mph 44 % 0.00 in
18:44 88.2 °F 63.5 °F 29.77 in WNW 3.5 mph 3.5 mph 44 % 0.00 in
18:49 88.4 °F 63.7 °F 29.77 in NNW 3.5 mph 3.5 mph 44 % 0.00 in
18:54 88.4 °F 64.4 °F 29.77 in NW 2.3 mph 2.3 mph 45 % 0.00 in
18:59 88.1 °F 64.1 °F 29.77 in NW 2.3 mph 2.3 mph 45 % 0.00 in
19:04 87.7 °F 63.7 °F 29.77 in NW 3.5 mph 3.5 mph 45 % 0.00 in
19:09 87.3 °F 64.0 °F 29.77 in NW 2.3 mph 2.3 mph 46 % 0.00 in
19:14 87.0 °F 64.3 °F 29.77 in NW 1.2 mph 1.2 mph 47 % 0.00 in
19:19 86.7 °F 64.7 °F 29.77 in NW 1.2 mph 1.2 mph 48 % 0.00 in
19:24 86.5 °F 64.5 °F 29.77 in Calm   0.1 mph 48 % 0.00 in
19:29 86.3 °F 64.3 °F 29.76 in NW 1.2 mph 1.2 mph 48 % 0.00 in
19:34 86.1 °F 64.1 °F 29.77 in NW 1.2 mph 1.2 mph 48 % 0.00 in
19:44 85.7 °F 64.3 °F 29.77 in NW 1.2 mph 1.2 mph 49 % 0.00 in
19:49 85.5 °F 64.2 °F 29.77 in Calm   0.1 mph 49 % 0.00 in
19:54 85.4 °F 64.1 °F 29.77 in NNW 1.2 mph   49 % 0.00 in
19:59 85.4 °F 62.9 °F 29.77 in NW 2.3 mph 2.3 mph 47 % 0.00 in
20:04 85.5 °F 63.0 °F 29.77 in NW 2.3 mph 2.3 mph 47 % 0.00 in
20:09 85.6 °F 62.4 °F 29.77 in Calm     46 % 0.00 in
20:18 85.3 °F 62.8 °F 29.77 in Calm     47 % 0.00 in
20:20 85.1 °F 62.0 °F 29.77 in NNW 1.2 mph 1.2 mph 46 % 0.00 in
20:23 85.0 °F 62.5 °F 29.77 in Calm     47 % 0.00 in
20:25 84.9 °F 62.4 °F 29.77 in NNW 1.2 mph   47 % 0.00 in
20:26 84.9 °F 62.4 °F 29.77 in Calm     47 % 0.00 in
20:28 84.8 °F 62.3 °F 29.77 in Calm     47 % 0.00 in
20:33 84.6 °F 61.5 °F 29.78 in Calm     46 % 0.00 in
20:38 84.3 °F 63.1 °F 29.78 in North 1.2 mph   49 % 0.00 in
20:43 83.8 °F 62.0 °F 29.77 in Calm     48 % 0.00 in
20:48 83.3 °F 62.7 °F 29.78 in Calm     50 % 0.00 in
20:53 82.9 °F 63.5 °F 29.77 in Calm     52 % 0.00 in
20:58 82.3 °F 63.5 °F 29.77 in Calm     53 % 0.00 in
21:03 81.7 °F 63.4 °F 29.78 in Calm     54 % 0.00 in
21:08 81.2 °F 64.0 °F 29.78 in Calm     56 % 0.00 in
21:13 80.7 °F 63.5 °F 29.78 in Calm     56 % 0.00 in
21:18 80.4 °F 64.8 °F 29.78 in Calm     59 % 0.00 in
21:23 80.0 °F 63.9 °F 29.78 in Calm     58 % 0.00 in
21:28 79.7 °F 63.1 °F 29.78 in Calm     57 % 0.00 in
21:33 79.4 °F 62.8 °F 29.78 in Calm     57 % 0.00 in
21:38 79.6 °F 62.5 °F 29.79 in Calm     56 % 0.00 in
21:43 80.0 °F 63.4 °F 29.79 in Calm     57 % 0.00 in
21:48 79.9 °F 63.8 °F 29.79 in Calm     58 % 0.00 in
21:53 79.7 °F 64.6 °F 29.80 in Calm     60 % 0.00 in
21:58 79.5 °F 63.4 °F 29.80 in Calm     58 % 0.00 in
22:03 79.3 °F 65.1 °F 29.80 in Calm     62 % 0.00 in
22:08 79.1 °F 64.5 °F 29.80 in Calm     61 % 0.00 in
22:13 78.8 °F 64.7 °F 29.80 in Calm     62 % 0.00 in
22:18 78.4 °F 63.8 °F 29.80 in Calm     61 % 0.00 in
22:23 78.2 °F 63.6 °F 29.80 in Calm     61 % 0.00 in
22:28 78.0 °F 64.8 °F 29.81 in Calm     64 % 0.00 in
22:33 77.8 °F 65.1 °F 29.81 in Calm     65 % 0.00 in
22:38 77.7 °F 65.4 °F 29.80 in Calm     66 % 0.00 in
22:43 77.5 °F 65.7 °F 29.80 in Calm     67 % 0.00 in
22:49 77.5 °F 66.1 °F 29.80 in NNW 1.2 mph 1.2 mph 68 % 0.00 in
22:54 77.4 °F 65.1 °F 29.80 in Calm     66 % 0.00 in
22:59 77.3 °F 65.9 °F 29.80 in Calm     68 % 0.00 in
23:04 77.2 °F 65.8 °F 29.81 in Calm     68 % 0.00 in
23:09 77.2 °F 65.8 °F 29.81 in Calm     68 % 0.00 in
23:14 77.2 °F 65.0 °F 29.81 in Calm     66 % 0.00 in
23:19 77.3 °F 65.1 °F 29.81 in Calm     66 % 0.00 in
23:24 77.3 °F 65.1 °F 29.81 in Calm     66 % 0.00 in
23:29 76.9 °F 65.5 °F 29.81 in Calm     68 % 0.00 in
23:34 76.6 °F 65.2 °F 29.81 in Calm     68 % 0.00 in
23:39 76.3 °F 65.8 °F 29.81 in Calm     70 % 0.00 in
23:44 75.9 °F 65.8 °F 29.81 in Calm     71 % 0.00 in
23:49 75.6 °F 65.5 °F 29.81 in Calm     71 % 0.00 in
23:54 75.4 °F 65.7 °F 29.81 in Calm     72 % 0.00 in
23:59 75.5 °F 65.4 °F 29.81 in ESE 1.0 mph   71 % 0.00 in
Park Place, Exeter, Tulare County, California, USA
Compliments of Weather Underground - 2.75 mb